TNCM Airport Information

Runway Information
Runway 09 Length 7708 ft width 148 ft
Elevation 11 ft Threshold 162 ft Heading 81
Runway 27 Length 7708 ft Width 148 ft
Elevation 11 ft Threshold 394 ft Heading 261
Runway 10 Length 7152 ft width 148 ft
Elevation 12 ft Threshold 0 ft Heading 81
Runway 28 Length 7152 ft Width 148 ft
Elevation 9 ft Threshold 0 ft Heading 261
Airport Frequencies
Type APP Name JULIANA AP Frequency 128.95 MHZ
Type TWR Name JULIANA TW Frequency 118.7 MHZ
Airport Navaids
Type NDB Name St.mMarten Frequency 284 KHZ
Type VOR-DME Name St.mMarten Frequency 113000 KHZ
Airport Weather Information & NOTAM

Deprecated: The each() function is deprecated. This message will be suppressed on further calls in /home/aerocargo/public_html/lib/functions.php on line 165
ADDS - METARS form results

(2203 UTC 17 January 2022)
Data provider http://aviationweather.gov/metar/data/
 
Forecast for: TNCM (ST MAARTEN JULIA, SX)
Text: TNCM 171736Z 1718/1818 10010KT P6SM FEW018
Forecast period: 1800 UTC 17 January 2022 to 1800 UTC 18 January 2022
Forecast type: FROM: standard forecast or significant change
Winds: from the E (100 degrees) at 12 MPH (10 knots; 5.1 m/s)
Visibility: 6 or more miles (10+ km)
Ceiling: at least 12,000 feet AGL
Clouds: few clouds at 1800 feet AGL
Weather: no significant weather forecast for this period